岡山グライダークラブ活動状況掲示板

岡山グライダークラブ
岡山市浦安南町639-1 岡南飛行場
 使用機:シャイベ式 SF25C型 ファルケ   JA2330
      ヴァレンティン式17E型 タイフーン  JA2342
 練習日:毎日曜日  クラブルーム:電話 086-265-1810
この掲示板は岡山グライダークラブの活動状況をお知らせする掲示板です。
!!!この掲示板は投稿規制をしています。!!!
クラブ関連各種情報は 岡山グライダークラブクラブルーム      を       .
  ブリーフイング情報は  岡山グライダークラブブリーフィングルーム  をご覧下さい。 .
※写真はクリックすると拡大して見ることが出来ます。
岡南飛行場へのアクセス等は 岡南飛行場管理事務所 をご覧ください。
クラブの ホームページ ができました。

!!!緊急事態宣言、まん延防止等重点措置の解除に伴い、見学者等の受入を再開します。なお、来所の際には、こちらを順守願います。

 
10月03日
by OGC at 2021/10/3(日) 20:30:13 No.20211003202548  削除コメント
640 x 480 x 132,285バイト
No.1

10月03日
本日の参加者
  会員      11名
  その他      1名


@本日の様子






METAR
RJBK 030000Z 18003KT 160V240 25KM SKC 21/18 Q1023 A3021
RJOB 030000Z VRB02KT 9999 FEW020 22/17 Q1023
RJOT 030000Z 05004KT 010V100 9999 FEW025 23/18 Q1023
RJOA 030000Z 13003KT 070V170 CAVOK 22/16 Q1023
TAF
RJOB 022306Z 0300/0406 14005KT 9999 FEW040
     TEMPO 0318/0400 3500 BR
RJOT 022307Z 0300/0406 06010KT 9999 FEW035
     BECMG 0308/0310 15005KT
     BECMG 0315/0318 23006KT
     BECMG 0400/0403 02005KT
RJOA 022307Z 0300/0406 14006KT 9999 FEW045
     BECMG 0308/0310 32006KT
     BECMG 0321/0400 17004KT

本日の天候は快晴、風も穏やかで、絶好のソロ日和。
訓練生はTGL訓練後、ソロに出て、ライセンサーはサーマルが全くないので、ナビに出たり、付近を廻ってすぐ降りてきていました。
また、緊急事態宣言、蔓延防止処置が解け見学者等の受入が始まったので、本日、体験搭乗に1名来られました。


解散    18:00

1番機  10:20離陸 撤収機  17:25着陸 

SF25C JA2330 ファルケ     10Flt.4h15min  
17E   JA2342 タイフーン    01Flt.0h20min
合計                    11Flt.4h35min

    << 戻る || ホームページ || 最新の掲示板へ